HomeShort term forecast

Short term forecast

Graphical weather forecast for the next 48 hours for Montreal:
Short term forecast
This weather forecast is automatically refreshed every 3 hours.

Hourly Experimental Forecast for the next 48 hours

Overall summary: Clear throughout the day.

 Date & Hour   Temp   Feel   Baro   Hum   Speed & Bearing   Wind Gust   Precip.%   Precip.   Visibility   Cloud cover   Conditions 
 22/09/2018 - 16:00  15.7°C  15.7°C  1022.8 hPa  44%  14.4 km/h   23.3 km/h  0%  --  16.1km  12%  Clear 
 22/09/2018 - 17:00  16.1°C  16.1°C  1022.7 hPa  44%  14.2 km/h   20.8 km/h  0%  --  16.1km  2%  Clear 
 22/09/2018 - 18:00  15.3°C  15.3°C  1023.0 hPa  47%  12.7 km/h   20.3 km/h  1%  0.05 mm/h  16.1km  0%  Clear 
 22/09/2018 - 19:00  13.5°C  13.5°C  1023.5 hPa  55%  10.9 km/h   21.2 km/h  1%  0.01 mm/h  16.1km  0%  Clear 
 22/09/2018 - 20:00  12.3°C  12.3°C  1023.8 hPa  60%  9.9 km/h   20.8 km/h  2%  0.03 mm/h  16.1km  0%  Clear 
 22/09/2018 - 21:00  11.6°C  11.6°C  1024.0 hPa  64%  8.7 km/h   18.4 km/h  1%  0.01 mm/h  16.1km  0%  Clear 
 22/09/2018 - 22:00  11.1°C  11.1°C  1024.0 hPa  66%  8.0 km/h   15.7 km/h  0%  --  16.1km  0%  Clear 
 22/09/2018 - 23:00  10.8°C  10.8°C  1024.0 hPa  67%  7.7 km/h   12.3 km/h  0%  --  16.1km  0%  Clear 
 23/09/2018 - 00:00  10.3°C  10.3°C  1023.9 hPa  68%  7.8 km/h   11.5 km/h  2%  0.03 mm/h  16.1km  0%  Clear 
 23/09/2018 - 01:00  10.2°C  10.2°C  1023.8 hPa  68%  8.6 km/h   13.5 km/h  0%  --  16.1km  0%  Clear 
 23/09/2018 - 02:00  9.7°C  8.4°C  1023.7 hPa  70%  9.4 km/h   16.6 km/h  2%  0.05 mm/h  16.1km  0%  Clear 
 23/09/2018 - 03:00  9.1°C  7.7°C  1023.7 hPa  72%  9.6 km/h   17.9 km/h  2%  0.04 mm/h  16.1km  3%  Clear 
 23/09/2018 - 04:00  8.4°C  6.8°C  1023.6 hPa  76%  9.9 km/h   19.5 km/h  0%  --  16.1km  6%  Clear 
 23/09/2018 - 05:00  7.7°C  5.7°C  1023.5 hPa  76%  10.9 km/h   22.5 km/h  0%  --  16.1km  12%  Clear 
 23/09/2018 - 06:00  7.2°C  5.0°C  1023.7 hPa  79%  11.5 km/h   24.6 km/h  0%  --  16.1km  11%  Clear 
 23/09/2018 - 07:00  7.2°C  4.8°C  1024.1 hPa  79%  12.3 km/h   26.3 km/h  0%  --  16.1km  8%  Clear 
 23/09/2018 - 08:00  7.8°C  5.5°C  1024.3 hPa  77%  12.8 km/h   26.6 km/h  0%  --  16.1km  7%  Clear 
 23/09/2018 - 09:00  9.4°C  7.5°C  1024.4 hPa  71%  12.8 km/h   24.4 km/h  0%  --  16.1km  9%  Clear 
 23/09/2018 - 10:00  11.6°C  11.6°C  1024.5 hPa  63%  12.6 km/h   20.7 km/h  0%  --  16.1km  13%  Clear 
 23/09/2018 - 11:00  13.8°C  13.8°C  1024.4 hPa  56%  12.4 km/h   18.1 km/h  0%  --  16.1km  15%  Clear 
 23/09/2018 - 12:00  15.2°C  15.2°C  1024.3 hPa  53%  12.2 km/h   17.7 km/h  0%  --  16.1km  17%  Clear 
 23/09/2018 - 13:00  16.4°C  16.4°C  1024.2 hPa  51%  12.2 km/h   18.4 km/h  0%  --  16.1km  17%  Clear 
 23/09/2018 - 14:00  17.2°C  17.2°C  1024.2 hPa  50%  12.5 km/h   18.8 km/h  2%  0.01 mm/h  16.1km  19%  Clear 
 23/09/2018 - 15:00  17.6°C  17.6°C  1024.2 hPa  50%  13.2 km/h   18.3 km/h  2%  0.01 mm/h  16.1km  25%  Partly Cloudy 
 23/09/2018 - 16:00  17.4°C  17.4°C  1024.3 hPa  52%  14.3 km/h   17.5 km/h  3%  0.01 mm/h  16.1km  32%  Partly Cloudy 
 23/09/2018 - 17:00  16.8°C  16.8°C  1024.7 hPa  54%  15.1 km/h   17.7 km/h  3%  0.01 mm/h  16.1km  41%  Partly Cloudy 
 23/09/2018 - 18:00  15.6°C  15.6°C  1025.6 hPa  57%  15.3 km/h   19.3 km/h  2%  0.01 mm/h  16.1km  53%  Partly Cloudy 
 23/09/2018 - 19:00  14.3°C  14.3°C  1026.8 hPa  59%  15.3 km/h   21.7 km/h  3%  0.01 mm/h  16.1km  67%  Mostly Cloudy 
 23/09/2018 - 20:00  13.1°C  13.1°C  1028.0 hPa  60%  15.6 km/h   24.0 km/h  0%  --  16.1km  78%  Mostly Cloudy 
 23/09/2018 - 21:00  12.4°C  12.4°C  1028.9 hPa  57%  16.6 km/h   26.0 km/h  0%  --  16.1km  83%  Mostly Cloudy 
 23/09/2018 - 22:00  11.9°C  11.9°C  1029.7 hPa  53%  17.8 km/h   27.9 km/h  0%  --  16.1km  88%  Mostly Cloudy 
 23/09/2018 - 23:00  11.3°C  11.3°C  1030.4 hPa  49%  18.6 km/h   29.7 km/h  0%  --  16.1km  91%  Mostly Cloudy 
 24/09/2018 - 00:00  10.8°C  10.8°C  1031.2 hPa  44%  18.9 km/h   31.4 km/h  0%  --  16.1km  94%  Overcast 
 24/09/2018 - 01:00  10.2°C  10.2°C  1031.9 hPa  39%  19.0 km/h   33.1 km/h  0%  --  16.1km  96%  Overcast 
 24/09/2018 - 02:00  9.6°C  7.0°C  1032.5 hPa  36%  19.1 km/h   34.7 km/h  0%  --  16.1km  94%  Overcast 
 24/09/2018 - 03:00  8.9°C  6.0°C  1033.1 hPa  38%  19.2 km/h   36.0 km/h  0%  --  16.1km  87%  Mostly Cloudy 
 24/09/2018 - 04:00  8.1°C  5.1°C  1033.5 hPa  41%  19.2 km/h   37.3 km/h  0%  --  16.1km  76%  Mostly Cloudy 
 24/09/2018 - 05:00  7.3°C  4.0°C  1034.1 hPa  45%  19.3 km/h   38.2 km/h  0%  --  16.1km  67%  Mostly Cloudy 
 24/09/2018 - 06:00  6.4°C  2.9°C  1034.7 hPa  48%  19.5 km/h   38.6 km/h  0%  --  16.1km  60%  Mostly Cloudy 
 24/09/2018 - 07:00  5.5°C  1.8°C  1035.5 hPa  51%  19.6 km/h   38.7 km/h  0%  --  16.1km  54%  Partly Cloudy 
 24/09/2018 - 08:00  5.5°C  1.8°C  1036.0 hPa  51%  19.7 km/h   37.8 km/h  0%  --  16.1km  45%  Partly Cloudy 
 24/09/2018 - 09:00  6.5°C  3.1°C  1036.1 hPa  48%  19.7 km/h   35.4 km/h  0%  --  16.1km  31%  Partly Cloudy 
 24/09/2018 - 10:00  8.3°C  5.2°C  1035.9 hPa  43%  19.7 km/h   32.2 km/h  0%  --  16.1km  13%  Clear 
 24/09/2018 - 11:00  9.9°C  7.3°C  1035.6 hPa  40%  19.5 km/h   29.2 km/h  2%  0.01 mm/h  16.1km  1%  Clear 
 24/09/2018 - 12:00  11.5°C  11.5°C  1035.2 hPa  38%  19.2 km/h   26.8 km/h  2%  0.01 mm/h  16.1km  0%  Clear 
 24/09/2018 - 13:00  12.9°C  12.9°C  1034.6 hPa  36%  18.8 km/h   24.7 km/h  2%  0.01 mm/h  16.1km  0%  Clear 
 24/09/2018 - 14:00  14.3°C  14.3°C  1034.1 hPa  35%  18.3 km/h   23.3 km/h  0%  --  16.1km  0%  Clear 
 24/09/2018 - 15:00  15.4°C  15.4°C  1033.5 hPa  36%  17.8 km/h   22.3 km/h  0%  --  16.1km  2%  Clear 
Test

 

Past weather and reports

Past weatherFind in this section the past weather conditions, weather archive, graphics, reports and statistics.

Current conditions

Current weather condition for MontrealAll you need to know about the current weather conditions for Montreal. Weather data is updated every 10 minutes.

Weather forecast

Current Montreal weatherSince 2004, celinium.com website has provided accurate weather forecast for Montreal's island.